Airfield :
LOGIN :

Register | Disclaimer

   EN    FR    IT 

 










Legend :    VFR   Marginal VFR   IFR   Intensive IFR   Very Intensive IFR
Visi :
Ceiling :
>= 8 km
>= 3000ft
5 to 8 km
1000 to 3000 ft
1500m to 5 km
500 to 1000 ft
800 to 1500m
200 to 500 ft
< 800m
< 200 ft
Symbols :   Thunderstorms  Fog  Heavy snow  Heavy precipitations  Wind > 20 kt
SIGMETs :     Misc.  Thunderstorms  Icing  Turbulence  Mountain Waves  Volcanic Ashes






- Airport Elevation : 63 ft
- IATA code : BZM


EHWO - Woensdrecht Airbase

CURRENT METAR :
  • 211525Z AUTO 36010KT 280V080 9999 FEW042 BKN060 OVC065 11/01 Q1025 BLU

EXPIRED METARs :
  • 211455Z AUTO 02008KT 320V070 9999 FEW041 SCT062 OVC068 10/01 Q1025 BLU
  • 211425Z AUTO 02009KT 340V080 9999 BKN065 OVC071 10/00 Q1025 BLU
  • 211355Z AUTO 04007KT 360V120 9999 FEW043 SCT063 11/01 Q1025 BLU
  • 211325Z AUTO 06009KT 330V110 9999 SCT042 SCT051 10/01 Q1025 BLU
  • 211255Z AUTO 03009KT 320V110 9999 FEW040 10/01 Q1025 BLU
  • 211225Z AUTO 01011KT 320V100 9999 SCT035 SCT043 09/00 Q1025 BLU
  • 211155Z AUTO 06011KT 360V120 9999 BKN033 10/02 Q1025 BLU
  • 211125Z AUTO 04011KT 350V090 9999 SCT032 08/01 Q1025 BLU
  • 211055Z AUTO 04013KT 340V100 9999 SCT029 BKN032 08/01 Q1025 BLU
  • 211034Z AUTO 03013KT 320V070 9999 FEW021 SCT025 08/02 Q1025 BLU

Expired Forecast.



MET'MAP, your aeronautical weather chart ! - Copyright ORBIFLY December 2007 - Disclaimer

ORBIFLY MET'MAP TEAM :

Programming & Development : Alexandra Zaïnal
Original concept : Baudouin d'Aumeries
Technical & hardware support : Manuel Goepfert
Assistance : Marc-Olivier Méhu




SOURCES & CREDITS :

   NOAA